sensor_id;sensor_type;location;lat;lon;timestamp;P1;durP1;ratioP1;P2;durP2;ratioP2
5987;SDS011;3021;51.000;6.980;2023-02-28T00:00:19;5.32;;;2.92;;
5987;SDS011;3021;51.000;6.980;2023-02-28T00:02:45;5.95;;;2.95;;
5987;SDS011;3021;51.000;6.980;2023-02-28T00:05:11;7.60;;;2.90;;
5987;SDS011;3021;51.000;6.980;2023-02-28T00:07:38;5.63;;;2.60;;
5987;SDS011;3021;51.000;6.980;2023-02-28T00:10:05;6.47;;;3.10;;
5987;SDS011;3021;51.000;6.980;2023-02-28T00:12:32;6.90;;;2.70;;
5987;SDS011;3021;51.000;6.980;2023-02-28T00:14:58;7.80;;;2.78;;
5987;SDS011;3021;51.000;6.980;2023-02-28T00:17:23;4.38;;;2.60;;
5987;SDS011;3021;51.000;6.980;2023-02-28T00:19:49;5.70;;;3.00;;
5987;SDS011;3021;51.000;6.980;2023-02-28T00:22:17;5.28;;;3.05;;
5987;SDS011;3021;51.000;6.980;2023-02-28T00:24:43;4.57;;;2.72;;
5987;SDS011;3021;51.000;6.980;2023-02-28T00:27:09;6.72;;;3.17;;
5987;SDS011;3021;51.000;6.980;2023-02-28T00:29:35;4.88;;;3.00;;
5987;SDS011;3021;51.000;6.980;2023-02-28T00:32:00;8.32;;;2.85;;
5987;SDS011;3021;51.000;6.980;2023-02-28T00:34:26;6.13;;;3.03;;
5987;SDS011;3021;51.000;6.980;2023-02-28T00:36:51;7.72;;;3.13;;
5987;SDS011;3021;51.000;6.980;2023-02-28T00:39:17;7.85;;;2.95;;
5987;SDS011;3021;51.000;6.980;2023-02-28T00:41:42;5.97;;;3.03;;
5987;SDS011;3021;51.000;6.980;2023-02-28T00:44:08;5.47;;;2.95;;
5987;SDS011;3021;51.000;6.980;2023-02-28T00:46:34;5.13;;;2.78;;
5987;SDS011;3021;51.000;6.980;2023-02-28T00:48:59;4.25;;;3.05;;
5987;SDS011;3021;51.000;6.980;2023-02-28T00:51:24;6.68;;;3.17;;
5987;SDS011;3021;51.000;6.980;2023-02-28T00:53:50;6.40;;;2.83;;
5987;SDS011;3021;51.000;6.980;2023-02-28T00:56:15;4.95;;;2.53;;
5987;SDS011;3021;51.000;6.980;2023-02-28T00:58:41;5.82;;;3.17;;
5987;SDS011;3021;51.000;6.980;2023-02-28T01:01:06;6.55;;;2.67;;
5987;SDS011;3021;51.000;6.980;2023-02-28T01:03:32;5.97;;;3.05;;
5987;SDS011;3021;51.000;6.980;2023-02-28T01:05:58;6.63;;;2.92;;
5987;SDS011;3021;51.000;6.980;2023-02-28T01:08:23;6.47;;;3.15;;
5987;SDS011;3021;51.000;6.980;2023-02-28T01:10:49;5.80;;;2.85;;
5987;SDS011;3021;51.000;6.980;2023-02-28T01:13:14;7.55;;;2.90;;
5987;SDS011;3021;51.000;6.980;2023-02-28T01:15:41;3.47;;;2.50;;
5987;SDS011;3021;51.000;6.980;2023-02-28T01:18:14;8.85;;;2.80;;
5987;SDS011;3021;51.000;6.980;2023-02-28T01:20:40;4.57;;;2.42;;
5987;SDS011;3021;51.000;6.980;2023-02-28T01:23:05;5.78;;;2.72;;
5987;SDS011;3021;51.000;6.980;2023-02-28T01:25:30;8.13;;;2.88;;
5987;SDS011;3021;51.000;6.980;2023-02-28T01:28:00;7.18;;;3.35;;
5987;SDS011;3021;51.000;6.980;2023-02-28T01:30:25;4.75;;;2.63;;
5987;SDS011;3021;51.000;6.980;2023-02-28T01:32:50;4.90;;;2.78;;
5987;SDS011;3021;51.000;6.980;2023-02-28T01:35:18;6.88;;;2.85;;
5987;SDS011;3021;51.000;6.980;2023-02-28T01:37:44;6.03;;;3.00;;
5987;SDS011;3021;51.000;6.980;2023-02-28T01:40:10;6.13;;;2.92;;
5987;SDS011;3021;51.000;6.980;2023-02-28T01:42:36;5.82;;;3.05;;
5987;SDS011;3021;51.000;6.980;2023-02-28T01:45:19;4.93;;;2.95;;
5987;SDS011;3021;51.000;6.980;2023-02-28T01:47:52;9.07;;;3.10;;
5987;SDS011;3021;51.000;6.980;2023-02-28T01:50:23;4.97;;;2.97;;
5987;SDS011;3021;51.000;6.980;2023-02-28T01:52:51;4.03;;;2.50;;
5987;SDS011;3021;51.000;6.980;2023-02-28T01:55:21;6.55;;;2.85;;
5987;SDS011;3021;51.000;6.980;2023-02-28T01:57:50;5.85;;;3.10;;
5987;SDS011;3021;51.000;6.980;2023-02-28T02:00:20;5.30;;;2.78;;
5987;SDS011;3021;51.000;6.980;2023-02-28T02:02:50;6.85;;;2.50;;
5987;SDS011;3021;51.000;6.980;2023-02-28T02:05:19;7.05;;;2.85;;
5987;SDS011;3021;51.000;6.980;2023-02-28T02:07:48;7.00;;;2.95;;
5987;SDS011;3021;51.000;6.980;2023-02-28T02:10:18;6.55;;;3.03;;
5987;SDS011;3021;51.000;6.980;2023-02-28T02:12:56;4.97;;;2.88;;
5987;SDS011;3021;51.000;6.980;2023-02-28T02:38:18;5.68;;;2.90;;
5987;SDS011;3021;51.000;6.980;2023-02-28T02:41:33;4.05;;;2.67;;
5987;SDS011;3021;51.000;6.980;2023-02-28T02:46:33;8.20;;;3.47;;
5987;SDS011;3021;51.000;6.980;2023-02-28T02:49:03;3.53;;;2.58;;
5987;SDS011;3021;51.000;6.980;2023-02-28T02:51:33;5.93;;;2.70;;
5987;SDS011;3021;51.000;6.980;2023-02-28T02:54:08;5.28;;;2.75;;
5987;SDS011;3021;51.000;6.980;2023-02-28T02:56:39;3.55;;;2.30;;
5987;SDS011;3021;51.000;6.980;2023-02-28T02:59:09;6.50;;;3.05;;
5987;SDS011;3021;51.000;6.980;2023-02-28T03:01:38;4.63;;;3.00;;
5987;SDS011;3021;51.000;6.980;2023-02-28T03:04:07;8.13;;;2.55;;
5987;SDS011;3021;51.000;6.980;2023-02-28T03:06:39;4.40;;;2.72;;
5987;SDS011;3021;51.000;6.980;2023-02-28T03:09:05;5.47;;;2.75;;
5987;SDS011;3021;51.000;6.980;2023-02-28T03:11:30;4.55;;;2.85;;
5987;SDS011;3021;51.000;6.980;2023-02-28T03:16:30;5.78;;;2.70;;
5987;SDS011;3021;51.000;6.980;2023-02-28T03:21:41;5.55;;;2.72;;
5987;SDS011;3021;51.000;6.980;2023-02-28T03:24:31;7.10;;;3.03;;
5987;SDS011;3021;51.000;6.980;2023-02-28T03:27:15;4.60;;;2.85;;
5987;SDS011;3021;51.000;6.980;2023-02-28T03:29:54;5.18;;;2.67;;
5987;SDS011;3021;51.000;6.980;2023-02-28T03:32:33;10.38;;;3.58;;
5987;SDS011;3021;51.000;6.980;2023-02-28T03:35:18;4.10;;;2.90;;
5987;SDS011;3021;51.000;6.980;2023-02-28T03:37:48;5.90;;;3.00;;
5987;SDS011;3021;51.000;6.980;2023-02-28T03:40:21;6.68;;;3.30;;
5987;SDS011;3021;51.000;6.980;2023-02-28T03:42:51;5.88;;;3.25;;
5987;SDS011;3021;51.000;6.980;2023-02-28T03:45:26;7.47;;;3.28;;
5987;SDS011;3021;51.000;6.980;2023-02-28T03:47:57;7.40;;;3.15;;
5987;SDS011;3021;51.000;6.980;2023-02-28T03:50:29;7.30;;;3.65;;
5987;SDS011;3021;51.000;6.980;2023-02-28T03:53:03;5.25;;;3.15;;
5987;SDS011;3021;51.000;6.980;2023-02-28T03:55:36;6.25;;;3.75;;
5987;SDS011;3021;51.000;6.980;2023-02-28T04:04:00;5.65;;;3.03;;
5987;SDS011;3021;51.000;6.980;2023-02-28T04:06:27;4.38;;;3.13;;
5987;SDS011;3021;51.000;6.980;2023-02-28T04:08:55;5.25;;;3.00;;
5987;SDS011;3021;51.000;6.980;2023-02-28T04:11:22;7.18;;;3.10;;
5987;SDS011;3021;51.000;6.980;2023-02-28T04:13:52;7.18;;;3.47;;
5987;SDS011;3021;51.000;6.980;2023-02-28T04:16:17;4.90;;;3.42;;
5987;SDS011;3021;51.000;6.980;2023-02-28T04:18:43;6.25;;;3.75;;
5987;SDS011;3021;51.000;6.980;2023-02-28T04:21:08;4.65;;;3.08;;
5987;SDS011;3021;51.000;6.980;2023-02-28T04:23:35;5.18;;;3.60;;
5987;SDS011;3021;51.000;6.980;2023-02-28T04:26:01;6.18;;;3.33;;
5987;SDS011;3021;51.000;6.980;2023-02-28T04:28:26;6.65;;;3.30;;
5987;SDS011;3021;51.000;6.980;2023-02-28T04:30:58;7.90;;;3.58;;
5987;SDS011;3021;51.000;6.980;2023-02-28T04:33:26;7.20;;;3.22;;
5987;SDS011;3021;51.000;6.980;2023-02-28T04:35:59;8.85;;;3.28;;
5987;SDS011;3021;51.000;6.980;2023-02-28T04:38:25;8.27;;;3.17;;
5987;SDS011;3021;51.000;6.980;2023-02-28T04:40:51;5.00;;;3.40;;
5987;SDS011;3021;51.000;6.980;2023-02-28T04:43:16;7.10;;;3.47;;
5987;SDS011;3021;51.000;6.980;2023-02-28T04:45:42;5.30;;;3.30;;
5987;SDS011;3021;51.000;6.980;2023-02-28T04:48:07;6.25;;;3.30;;
5987;SDS011;3021;51.000;6.980;2023-02-28T04:50:33;4.78;;;2.70;;
5987;SDS011;3021;51.000;6.980;2023-02-28T04:52:58;6.88;;;3.50;;
5987;SDS011;3021;51.000;6.980;2023-02-28T04:55:24;7.28;;;3.30;;
5987;SDS011;3021;51.000;6.980;2023-02-28T04:57:49;5.30;;;3.00;;
5987;SDS011;3021;51.000;6.980;2023-02-28T05:00:15;7.40;;;3.67;;
5987;SDS011;3021;51.000;6.980;2023-02-28T05:02:41;6.80;;;3.67;;
5987;SDS011;3021;51.000;6.980;2023-02-28T05:05:07;6.40;;;3.33;;
5987;SDS011;3021;51.000;6.980;2023-02-28T05:07:33;6.78;;;3.25;;
5987;SDS011;3021;51.000;6.980;2023-02-28T05:09:58;3.95;;;2.95;;
5987;SDS011;3021;51.000;6.980;2023-02-28T05:12:23;5.82;;;3.35;;
5987;SDS011;3021;51.000;6.980;2023-02-28T05:14:49;5.72;;;3.33;;
5987;SDS011;3021;51.000;6.980;2023-02-28T05:17:14;7.28;;;3.30;;
5987;SDS011;3021;51.000;6.980;2023-02-28T05:19:40;9.30;;;3.30;;
5987;SDS011;3021;51.000;6.980;2023-02-28T05:22:10;6.57;;;3.95;;
5987;SDS011;3021;51.000;6.980;2023-02-28T05:24:38;6.00;;;3.28;;
5987;SDS011;3021;51.000;6.980;2023-02-28T05:27:04;3.97;;;3.00;;
5987;SDS011;3021;51.000;6.980;2023-02-28T05:29:29;7.38;;;3.40;;
5987;SDS011;3021;51.000;6.980;2023-02-28T05:31:54;6.68;;;3.42;;
5987;SDS011;3021;51.000;6.980;2023-02-28T05:34:20;6.07;;;3.20;;
5987;SDS011;3021;51.000;6.980;2023-02-28T05:36:45;5.35;;;2.83;;
5987;SDS011;3021;51.000;6.980;2023-02-28T05:39:11;3.88;;;3.08;;
5987;SDS011;3021;51.000;6.980;2023-02-28T05:41:38;5.22;;;3.13;;
5987;SDS011;3021;51.000;6.980;2023-02-28T05:44:04;4.95;;;3.00;;
5987;SDS011;3021;51.000;6.980;2023-02-28T05:46:30;4.88;;;2.92;;
5987;SDS011;3021;51.000;6.980;2023-02-28T05:48:55;5.95;;;3.08;;
5987;SDS011;3021;51.000;6.980;2023-02-28T05:51:22;4.75;;;3.05;;
5987;SDS011;3021;51.000;6.980;2023-02-28T05:53:48;8.80;;;3.08;;
5987;SDS011;3021;51.000;6.980;2023-02-28T05:56:14;5.97;;;2.80;;
5987;SDS011;3021;51.000;6.980;2023-02-28T05:58:39;4.47;;;2.53;;
5987;SDS011;3021;51.000;6.980;2023-02-28T06:03:55;4.35;;;2.63;;
5987;SDS011;3021;51.000;6.980;2023-02-28T06:06:20;6.30;;;3.10;;
5987;SDS011;3021;51.000;6.980;2023-02-28T06:08:46;4.63;;;2.88;;
5987;SDS011;3021;51.000;6.980;2023-02-28T06:11:11;6.15;;;3.13;;
5987;SDS011;3021;51.000;6.980;2023-02-28T06:13:37;5.55;;;2.78;;
5987;SDS011;3021;51.000;6.980;2023-02-28T06:16:02;6.93;;;3.30;;
5987;SDS011;3021;51.000;6.980;2023-02-28T06:18:27;5.35;;;3.03;;
5987;SDS011;3021;51.000;6.980;2023-02-28T06:20:53;5.97;;;2.92;;
5987;SDS011;3021;51.000;6.980;2023-02-28T06:23:19;5.07;;;2.90;;
5987;SDS011;3021;51.000;6.980;2023-02-28T06:25:45;7.30;;;3.50;;
5987;SDS011;3021;51.000;6.980;2023-02-28T06:28:11;7.35;;;3.13;;
5987;SDS011;3021;51.000;6.980;2023-02-28T06:30:37;7.53;;;3.30;;
5987;SDS011;3021;51.000;6.980;2023-02-28T06:33:03;6.00;;;3.40;;
5987;SDS011;3021;51.000;6.980;2023-02-28T06:35:28;5.05;;;3.05;;
5987;SDS011;3021;51.000;6.980;2023-02-28T06:37:54;10.75;;;3.08;;
5987;SDS011;3021;51.000;6.980;2023-02-28T06:40:20;6.45;;;3.25;;
5987;SDS011;3021;51.000;6.980;2023-02-28T06:42:45;5.03;;;3.05;;
5987;SDS011;3021;51.000;6.980;2023-02-28T06:45:11;6.90;;;3.20;;
5987;SDS011;3021;51.000;6.980;2023-02-28T06:47:37;5.55;;;3.17;;
5987;SDS011;3021;51.000;6.980;2023-02-28T06:50:05;4.78;;;3.60;;
5987;SDS011;3021;51.000;6.980;2023-02-28T06:52:31;6.47;;;3.50;;
5987;SDS011;3021;51.000;6.980;2023-02-28T06:54:57;4.93;;;3.33;;
5987;SDS011;3021;51.000;6.980;2023-02-28T06:57:27;5.45;;;3.30;;
5987;SDS011;3021;51.000;6.980;2023-02-28T06:59:55;5.15;;;2.97;;
5987;SDS011;3021;51.000;6.980;2023-02-28T07:02:22;7.25;;;3.22;;
5987;SDS011;3021;51.000;6.980;2023-02-28T07:04:51;7.10;;;3.40;;
5987;SDS011;3021;51.000;6.980;2023-02-28T07:07:16;4.88;;;3.22;;
5987;SDS011;3021;51.000;6.980;2023-02-28T07:09:42;4.93;;;3.40;;
5987;SDS011;3021;51.000;6.980;2023-02-28T07:12:07;7.68;;;3.58;;
5987;SDS011;3021;51.000;6.980;2023-02-28T07:14:33;5.22;;;2.55;;
5987;SDS011;3021;51.000;6.980;2023-02-28T07:16:58;4.45;;;2.97;;
5987;SDS011;3021;51.000;6.980;2023-02-28T07:19:24;5.82;;;3.13;;
5987;SDS011;3021;51.000;6.980;2023-02-28T07:21:49;6.32;;;3.03;;
5987;SDS011;3021;51.000;6.980;2023-02-28T07:24:15;5.72;;;3.13;;
5987;SDS011;3021;51.000;6.980;2023-02-28T07:26:42;3.35;;;2.63;;
5987;SDS011;3021;51.000;6.980;2023-02-28T07:29:08;5.10;;;3.17;;
5987;SDS011;3021;51.000;6.980;2023-02-28T07:31:34;4.30;;;2.97;;
5987;SDS011;3021;51.000;6.980;2023-02-28T07:33:59;8.38;;;3.13;;
5987;SDS011;3021;51.000;6.980;2023-02-28T07:36:25;7.07;;;2.88;;
5987;SDS011;3021;51.000;6.980;2023-02-28T07:38:50;4.35;;;2.70;;
5987;SDS011;3021;51.000;6.980;2023-02-28T07:41:17;3.47;;;2.63;;
5987;SDS011;3021;51.000;6.980;2023-02-28T07:43:44;3.88;;;2.83;;
5987;SDS011;3021;51.000;6.980;2023-02-28T07:46:11;4.90;;;2.78;;
5987;SDS011;3021;51.000;6.980;2023-02-28T07:48:40;3.53;;;2.42;;
5987;SDS011;3021;51.000;6.980;2023-02-28T07:51:06;3.58;;;2.20;;
5987;SDS011;3021;51.000;6.980;2023-02-28T07:53:32;3.85;;;2.70;;
5987;SDS011;3021;51.000;6.980;2023-02-28T07:55:58;3.85;;;2.00;;
5987;SDS011;3021;51.000;6.980;2023-02-28T07:58:25;2.22;;;2.03;;
5987;SDS011;3021;51.000;6.980;2023-02-28T08:00:51;3.97;;;2.20;;
5987;SDS011;3021;51.000;6.980;2023-02-28T08:03:17;3.80;;;2.05;;
5987;SDS011;3021;51.000;6.980;2023-02-28T08:05:45;3.50;;;2.20;;
5987;SDS011;3021;51.000;6.980;2023-02-28T08:08:11;3.28;;;1.88;;
5987;SDS011;3021;51.000;6.980;2023-02-28T08:10:36;2.65;;;2.17;;
5987;SDS011;3021;51.000;6.980;2023-02-28T08:13:02;2.90;;;2.25;;
5987;SDS011;3021;51.000;6.980;2023-02-28T08:15:27;4.05;;;1.92;;
5987;SDS011;3021;51.000;6.980;2023-02-28T08:17:53;4.53;;;2.00;;
5987;SDS011;3021;51.000;6.980;2023-02-28T08:20:21;3.50;;;2.10;;
5987;SDS011;3021;51.000;6.980;2023-02-28T08:22:47;3.13;;;2.22;;
5987;SDS011;3021;51.000;6.980;2023-02-28T08:25:12;2.55;;;1.90;;
5987;SDS011;3021;51.000;6.980;2023-02-28T08:27:38;4.03;;;2.03;;
5987;SDS011;3021;51.000;6.980;2023-02-28T08:30:03;3.78;;;1.83;;
5987;SDS011;3021;51.000;6.980;2023-02-28T08:32:29;4.03;;;1.90;;
5987;SDS011;3021;51.000;6.980;2023-02-28T08:34:55;2.35;;;2.10;;
5987;SDS011;3021;51.000;6.980;2023-02-28T08:37:21;3.70;;;2.00;;
5987;SDS011;3021;51.000;6.980;2023-02-28T08:39:46;2.72;;;2.00;;
5987;SDS011;3021;51.000;6.980;2023-02-28T08:42:12;2.40;;;1.73;;
5987;SDS011;3021;51.000;6.980;2023-02-28T08:44:37;2.58;;;2.03;;
5987;SDS011;3021;51.000;6.980;2023-02-28T08:47:03;2.80;;;1.55;;
5987;SDS011;3021;51.000;6.980;2023-02-28T08:49:28;2.42;;;1.70;;
5987;SDS011;3021;51.000;6.980;2023-02-28T08:51:54;2.90;;;1.90;;
5987;SDS011;3021;51.000;6.980;2023-02-28T08:54:22;3.15;;;1.70;;
5987;SDS011;3021;51.000;6.980;2023-02-28T08:56:47;3.33;;;1.70;;
5987;SDS011;3021;51.000;6.980;2023-02-28T08:59:13;3.20;;;1.75;;
5987;SDS011;3021;51.000;6.980;2023-02-28T09:01:39;2.40;;;1.60;;
5987;SDS011;3021;51.000;6.980;2023-02-28T09:04:06;2.75;;;1.90;;
5987;SDS011;3021;51.000;6.980;2023-02-28T09:06:33;2.40;;;1.70;;
5987;SDS011;3021;51.000;6.980;2023-02-28T09:08:59;2.97;;;1.83;;
5987;SDS011;3021;51.000;6.980;2023-02-28T09:11:26;2.45;;;1.73;;
5987;SDS011;3021;51.000;6.980;2023-02-28T09:13:52;2.20;;;1.85;;
5987;SDS011;3021;51.000;6.980;2023-02-28T09:16:18;2.92;;;1.80;;
5987;SDS011;3021;51.000;6.980;2023-02-28T09:18:43;3.10;;;1.60;;
5987;SDS011;3021;51.000;6.980;2023-02-28T09:21:13;2.92;;;1.90;;
5987;SDS011;3021;51.000;6.980;2023-02-28T09:23:41;2.42;;;1.65;;
5987;SDS011;3021;51.000;6.980;2023-02-28T09:26:21;5.10;;;2.10;;
5987;SDS011;3021;51.000;6.980;2023-02-28T09:28:48;3.25;;;1.83;;
5987;SDS011;3021;51.000;6.980;2023-02-28T09:31:14;3.75;;;2.05;;
5987;SDS011;3021;51.000;6.980;2023-02-28T09:33:41;2.40;;;1.70;;
5987;SDS011;3021;51.000;6.980;2023-02-28T09:36:08;3.20;;;1.80;;
5987;SDS011;3021;51.000;6.980;2023-02-28T09:38:33;3.75;;;1.90;;
5987;SDS011;3021;51.000;6.980;2023-02-28T09:41:01;3.28;;;2.13;;
5987;SDS011;3021;51.000;6.980;2023-02-28T09:43:34;3.05;;;1.80;;
5987;SDS011;3021;51.000;6.980;2023-02-28T09:46:08;2.53;;;1.50;;
5987;SDS011;3021;51.000;6.980;2023-02-28T09:48:48;3.78;;;1.80;;
5987;SDS011;3021;51.000;6.980;2023-02-28T09:54:08;2.38;;;1.75;;
5987;SDS011;3021;51.000;6.980;2023-02-28T09:56:41;3.38;;;1.75;;
5987;SDS011;3021;51.000;6.980;2023-02-28T10:04:13;2.42;;;1.90;;
5987;SDS011;3021;51.000;6.980;2023-02-28T10:06:48;2.00;;;1.60;;
5987;SDS011;3021;51.000;6.980;2023-02-28T10:11:44;1.33;;;1.20;;
5987;SDS011;3021;51.000;6.980;2023-02-28T10:16:53;3.47;;;1.60;;
5987;SDS011;3021;51.000;6.980;2023-02-28T10:24:39;4.60;;;1.70;;
5987;SDS011;3021;51.000;6.980;2023-02-28T10:27:18;2.38;;;1.40;;
5987;SDS011;3021;51.000;6.980;2023-02-28T10:29:48;1.95;;;1.70;;
5987;SDS011;3021;51.000;6.980;2023-02-28T10:32:16;2.67;;;1.90;;
5987;SDS011;3021;51.000;6.980;2023-02-28T10:34:44;3.30;;;1.70;;
5987;SDS011;3021;51.000;6.980;2023-02-28T10:37:16;2.22;;;1.60;;
5987;SDS011;3021;51.000;6.980;2023-02-28T10:39:46;4.53;;;1.70;;
5987;SDS011;3021;51.000;6.980;2023-02-28T10:42:22;2.63;;;1.85;;
5987;SDS011;3021;51.000;6.980;2023-02-28T10:45:11;1.88;;;1.60;;
5987;SDS011;3021;51.000;6.980;2023-02-28T10:47:51;4.13;;;2.28;;
5987;SDS011;3021;51.000;6.980;2023-02-28T10:55:58;2.72;;;1.90;;
5987;SDS011;3021;51.000;6.980;2023-02-28T11:03:55;2.35;;;1.85;;
5987;SDS011;3021;51.000;6.980;2023-02-28T11:06:23;2.17;;;1.80;;
5987;SDS011;3021;51.000;6.980;2023-02-28T11:09:00;2.88;;;2.35;;
5987;SDS011;3021;51.000;6.980;2023-02-28T11:11:29;4.80;;;2.75;;
5987;SDS011;3021;51.000;6.980;2023-02-28T11:14:06;3.70;;;1.92;;
5987;SDS011;3021;51.000;6.980;2023-02-28T11:16:53;3.10;;;2.28;;
5987;SDS011;3021;51.000;6.980;2023-02-28T11:19:26;2.78;;;2.20;;
5987;SDS011;3021;51.000;6.980;2023-02-28T11:21:56;4.00;;;2.22;;
5987;SDS011;3021;51.000;6.980;2023-02-28T11:24:28;4.22;;;2.20;;
5987;SDS011;3021;51.000;6.980;2023-02-28T11:26:58;5.03;;;2.50;;
5987;SDS011;3021;51.000;6.980;2023-02-28T11:29:25;3.13;;;2.25;;
5987;SDS011;3021;51.000;6.980;2023-02-28T11:34:26;2.42;;;2.13;;
5987;SDS011;3021;51.000;6.980;2023-02-28T11:36:56;2.60;;;2.30;;
5987;SDS011;3021;51.000;6.980;2023-02-28T11:39:23;5.00;;;2.58;;
5987;SDS011;3021;51.000;6.980;2023-02-28T11:41:54;3.25;;;2.20;;
5987;SDS011;3021;51.000;6.980;2023-02-28T11:52:53;3.90;;;2.70;;
5987;SDS011;3021;51.000;6.980;2023-02-28T11:55:31;4.75;;;2.53;;
5987;SDS011;3021;51.000;6.980;2023-02-28T11:58:07;4.30;;;2.50;;
5987;SDS011;3021;51.000;6.980;2023-02-28T12:00:57;3.58;;;2.80;;
5987;SDS011;3021;51.000;6.980;2023-02-28T12:03:38;4.75;;;2.85;;
5987;SDS011;3021;51.000;6.980;2023-02-28T12:06:22;4.65;;;2.90;;
5987;SDS011;3021;51.000;6.980;2023-02-28T12:09:00;3.72;;;2.88;;
5987;SDS011;3021;51.000;6.980;2023-02-28T12:11:36;4.97;;;2.72;;
5987;SDS011;3021;51.000;6.980;2023-02-28T12:19:56;3.47;;;2.55;;
5987;SDS011;3021;51.000;6.980;2023-02-28T12:28:06;4.22;;;2.60;;
5987;SDS011;3021;51.000;6.980;2023-02-28T12:30:36;4.18;;;2.45;;
5987;SDS011;3021;51.000;6.980;2023-02-28T12:33:14;3.88;;;2.75;;
5987;SDS011;3021;51.000;6.980;2023-02-28T12:35:51;3.17;;;2.60;;
5987;SDS011;3021;51.000;6.980;2023-02-28T12:41:00;7.57;;;2.80;;
5987;SDS011;3021;51.000;6.980;2023-02-28T12:43:34;5.18;;;2.92;;
5987;SDS011;3021;51.000;6.980;2023-02-28T12:46:14;4.63;;;2.83;;
5987;SDS011;3021;51.000;6.980;2023-02-28T12:48:48;3.53;;;2.75;;
5987;SDS011;3021;51.000;6.980;2023-02-28T12:51:15;5.40;;;3.15;;
5987;SDS011;3021;51.000;6.980;2023-02-28T12:59:11;7.25;;;3.28;;
5987;SDS011;3021;51.000;6.980;2023-02-28T13:04:41;5.07;;;2.92;;
5987;SDS011;3021;51.000;6.980;2023-02-28T13:10:06;5.75;;;3.28;;
5987;SDS011;3021;51.000;6.980;2023-02-28T13:12:32;4.88;;;3.08;;
5987;SDS011;3021;51.000;6.980;2023-02-28T13:15:18;5.38;;;3.45;;
5987;SDS011;3021;51.000;6.980;2023-02-28T13:17:56;4.75;;;3.25;;
5987;SDS011;3021;51.000;6.980;2023-02-28T13:20:29;2.97;;;2.55;;
5987;SDS011;3021;51.000;6.980;2023-02-28T13:22:59;6.70;;;3.25;;
5987;SDS011;3021;51.000;6.980;2023-02-28T13:28:11;4.70;;;3.00;;
5987;SDS011;3021;51.000;6.980;2023-02-28T13:38:44;4.70;;;2.85;;
5987;SDS011;3021;51.000;6.980;2023-02-28T13:44:12;5.78;;;3.13;;
5987;SDS011;3021;51.000;6.980;2023-02-28T13:54:44;4.25;;;2.92;;
5987;SDS011;3021;51.000;6.980;2023-02-28T14:02:43;5.20;;;2.88;;
5987;SDS011;3021;51.000;6.980;2023-02-28T14:05:18;12.02;;;3.75;;
5987;SDS011;3021;51.000;6.980;2023-02-28T14:07:50;3.90;;;2.92;;
5987;SDS011;3021;51.000;6.980;2023-02-28T14:10:23;4.47;;;2.75;;
5987;SDS011;3021;51.000;6.980;2023-02-28T14:15:55;4.80;;;3.22;;
5987;SDS011;3021;51.000;6.980;2023-02-28T14:26:34;6.78;;;3.42;;
5987;SDS011;3021;51.000;6.980;2023-02-28T14:37:14;7.35;;;3.38;;
5987;SDS011;3021;51.000;6.980;2023-02-28T14:39:45;5.30;;;3.97;;
5987;SDS011;3021;51.000;6.980;2023-02-28T14:42:30;3.60;;;3.03;;
5987;SDS011;3021;51.000;6.980;2023-02-28T14:44:58;7.75;;;3.47;;
5987;SDS011;3021;51.000;6.980;2023-02-28T14:47:23;6.43;;;3.75;;
5987;SDS011;3021;51.000;6.980;2023-02-28T14:49:53;4.30;;;3.33;;
5987;SDS011;3021;51.000;6.980;2023-02-28T14:52:23;5.45;;;3.75;;
5987;SDS011;3021;51.000;6.980;2023-02-28T14:54:53;5.60;;;3.75;;
5987;SDS011;3021;51.000;6.980;2023-02-28T14:57:39;6.38;;;3.42;;
5987;SDS011;3021;51.000;6.980;2023-02-28T15:02:42;5.95;;;3.72;;
5987;SDS011;3021;51.000;6.980;2023-02-28T15:07:42;4.25;;;3.38;;
5987;SDS011;3021;51.000;6.980;2023-02-28T15:10:15;5.75;;;3.65;;
5987;SDS011;3021;51.000;6.980;2023-02-28T15:12:50;4.63;;;3.25;;
5987;SDS011;3021;51.000;6.980;2023-02-28T15:15:21;5.55;;;3.33;;
5987;SDS011;3021;51.000;6.980;2023-02-28T15:17:50;5.13;;;3.28;;
5987;SDS011;3021;51.000;6.980;2023-02-28T15:20:18;6.45;;;3.28;;
5987;SDS011;3021;51.000;6.980;2023-02-28T15:22:45;5.50;;;3.50;;
5987;SDS011;3021;51.000;6.980;2023-02-28T15:25:15;5.20;;;3.17;;
5987;SDS011;3021;51.000;6.980;2023-02-28T15:27:49;4.03;;;3.03;;
5987;SDS011;3021;51.000;6.980;2023-02-28T15:30:22;5.45;;;3.33;;
5987;SDS011;3021;51.000;6.980;2023-02-28T15:35:43;4.70;;;3.17;;
5987;SDS011;3021;51.000;6.980;2023-02-28T15:38:22;6.07;;;2.83;;
5987;SDS011;3021;51.000;6.980;2023-02-28T15:40:50;4.88;;;3.38;;
5987;SDS011;3021;51.000;6.980;2023-02-28T15:43:30;7.43;;;3.67;;
5987;SDS011;3021;51.000;6.980;2023-02-28T15:46:03;4.85;;;3.13;;
5987;SDS011;3021;51.000;6.980;2023-02-28T15:48:43;5.43;;;3.10;;
5987;SDS011;3021;51.000;6.980;2023-02-28T15:51:16;5.00;;;3.33;;
5987;SDS011;3021;51.000;6.980;2023-02-28T15:59:07;4.65;;;3.13;;
5987;SDS011;3021;51.000;6.980;2023-02-28T16:01:39;5.05;;;3.45;;
5987;SDS011;3021;51.000;6.980;2023-02-28T16:04:05;5.05;;;3.15;;
5987;SDS011;3021;51.000;6.980;2023-02-28T16:09:22;4.35;;;2.95;;
5987;SDS011;3021;51.000;6.980;2023-02-28T16:11:48;4.78;;;2.80;;
5987;SDS011;3021;51.000;6.980;2023-02-28T16:14:17;4.35;;;3.22;;
5987;SDS011;3021;51.000;6.980;2023-02-28T16:16:46;3.72;;;3.00;;
5987;SDS011;3021;51.000;6.980;2023-02-28T16:19:14;5.28;;;2.85;;
5987;SDS011;3021;51.000;6.980;2023-02-28T16:21:39;5.03;;;2.88;;
5987;SDS011;3021;51.000;6.980;2023-02-28T16:24:05;3.90;;;2.67;;
5987;SDS011;3021;51.000;6.980;2023-02-28T16:26:31;3.92;;;2.67;;
5987;SDS011;3021;51.000;6.980;2023-02-28T16:28:59;5.03;;;3.00;;
5987;SDS011;3021;51.000;6.980;2023-02-28T16:31:26;4.63;;;3.03;;
5987;SDS011;3021;51.000;6.980;2023-02-28T16:33:52;6.28;;;2.90;;
5987;SDS011;3021;51.000;6.980;2023-02-28T16:36:19;8.98;;;3.22;;
5987;SDS011;3021;51.000;6.980;2023-02-28T16:38:46;4.88;;;3.15;;
5987;SDS011;3021;51.000;6.980;2023-02-28T16:41:12;7.00;;;2.78;;
5987;SDS011;3021;51.000;6.980;2023-02-28T16:43:46;9.60;;;3.78;;
5987;SDS011;3021;51.000;6.980;2023-02-28T16:46:13;4.78;;;3.30;;
5987;SDS011;3021;51.000;6.980;2023-02-28T16:48:40;4.57;;;3.30;;
5987;SDS011;3021;51.000;6.980;2023-02-28T16:51:06;5.10;;;3.33;;
5987;SDS011;3021;51.000;6.980;2023-02-28T16:53:36;4.28;;;3.58;;
5987;SDS011;3021;51.000;6.980;2023-02-28T16:56:02;5.80;;;3.13;;
5987;SDS011;3021;51.000;6.980;2023-02-28T16:58:27;4.32;;;3.22;;
5987;SDS011;3021;51.000;6.980;2023-02-28T17:00:53;5.88;;;3.55;;
5987;SDS011;3021;51.000;6.980;2023-02-28T17:03:22;6.22;;;3.17;;
5987;SDS011;3021;51.000;6.980;2023-02-28T17:05:49;4.47;;;2.85;;
5987;SDS011;3021;51.000;6.980;2023-02-28T17:08:15;4.85;;;2.65;;
5987;SDS011;3021;51.000;6.980;2023-02-28T17:10:41;4.75;;;3.17;;
5987;SDS011;3021;51.000;6.980;2023-02-28T17:13:07;4.82;;;3.03;;
5987;SDS011;3021;51.000;6.980;2023-02-28T17:15:33;4.03;;;2.95;;
5987;SDS011;3021;51.000;6.980;2023-02-28T17:18:00;5.72;;;3.17;;
5987;SDS011;3021;51.000;6.980;2023-02-28T17:20:26;8.52;;;3.80;;
5987;SDS011;3021;51.000;6.980;2023-02-28T17:22:54;5.45;;;3.30;;
5987;SDS011;3021;51.000;6.980;2023-02-28T17:25:20;6.57;;;3.95;;
5987;SDS011;3021;51.000;6.980;2023-02-28T17:27:46;5.75;;;3.38;;
5987;SDS011;3021;51.000;6.980;2023-02-28T17:30:23;5.00;;;3.20;;
5987;SDS011;3021;51.000;6.980;2023-02-28T17:32:52;8.50;;;3.95;;
5987;SDS011;3021;51.000;6.980;2023-02-28T17:35:17;4.90;;;3.13;;
5987;SDS011;3021;51.000;6.980;2023-02-28T17:37:43;4.65;;;3.28;;
5987;SDS011;3021;51.000;6.980;2023-02-28T17:40:15;6.45;;;3.28;;
5987;SDS011;3021;51.000;6.980;2023-02-28T17:42:43;7.22;;;3.35;;
5987;SDS011;3021;51.000;6.980;2023-02-28T17:45:09;10.98;;;4.00;;
5987;SDS011;3021;51.000;6.980;2023-02-28T17:47:35;7.63;;;3.90;;
5987;SDS011;3021;51.000;6.980;2023-02-28T17:50:02;6.95;;;3.80;;
5987;SDS011;3021;51.000;6.980;2023-02-28T17:52:27;6.35;;;4.15;;
5987;SDS011;3021;51.000;6.980;2023-02-28T17:54:54;10.55;;;4.10;;
5987;SDS011;3021;51.000;6.980;2023-02-28T17:57:20;7.20;;;4.13;;
5987;SDS011;3021;51.000;6.980;2023-02-28T17:59:45;6.47;;;4.13;;
5987;SDS011;3021;51.000;6.980;2023-02-28T18:02:11;8.63;;;4.25;;
5987;SDS011;3021;51.000;6.980;2023-02-28T18:04:38;8.68;;;4.40;;
5987;SDS011;3021;51.000;6.980;2023-02-28T18:07:05;10.30;;;4.43;;
5987;SDS011;3021;51.000;6.980;2023-02-28T18:09:31;6.85;;;4.70;;
5987;SDS011;3021;51.000;6.980;2023-02-28T18:11:56;13.60;;;4.03;;